Avondale, KY

9:01 AM CDT on May 26, 2015 (GMT -0500)
Ricks Place Paducah, KY | | Change Station
CLOSE
Current Station
Personal Weather Station
Location: Paducah, KY
Elevation: 351 ft
Nearby Weather Stations

Elev 351 ft 37.07 °N, 88.62 °W | Updated 5 minutes ago

Overcast
Overcast
74.5 °F
Feels Like 73 °F
N
6.3
Wind Variable Wind from West

Today
High -- | Low -- °F
--% Chance of Precip.
Yesterday
High -- | Low -- °F
Precip. -- in
5:39 AM 8:04 PM
First Quarter, 58% visible
Pressure 29.97 in
Visibility 10.0 miles
Clouds Mostly Cloudy 1800 ft
Overcast 2500 ft
Heat Index 73 °F
Dew Point 71 °F
Humidity 89%
Rainfall 0.00 in
Snow Depth Not available.
UV 1 out of 12
Pollen 2.70 out of 12
Air Quality Not available.
Flu Activity Sporadic
METAR KPAH 261353Z 20009G14KT 150V230 10SM BKN018 OVC025 23/19 A2998 RMK AO2 SLP149 T02280189

More Conditions Fewer Conditions

Pressure 29.97 in
Visibility 10.0 miles
Clouds Mostly Cloudy 1800 ft
Overcast 2500 ft
Heat Index 73 °F
Dew Point 71 °F
Humidity 89%
Rainfall 0.00 in
Snow Depth Not available.
UV 1 out of 12
Pollen 2.70 out of 12
Air Quality Not available.
Flu Activity Sporadic
METAR KPAH 261353Z 20009G14KT 150V230 10SM BKN018 OVC025 23/19 A2998 RMK AO2 SLP149 T02280189

More Conditions Fewer Conditions

10-Day Weather Forecast

Almanac

Astronomy

May. 26, 2015 Rise Set
Actual Time
Civil Twilight
Nautical Twilight
Astronomical Twilight
Moon
Length of Visible Light
Length of Day
Tomorrow will be .
, % of the Moon is Illuminated

Today's Extremes

State Highs State Lows

Community

WunderPhotos

Upload Photos

1,824,344 photos uploaded!

WunderBlogs® & News

Nearby

Air Quality

  Air Quality AQ Index Pollutant
Not available.

Snow Depth

Station Depth Elevation

Earthquake Activity

City Distance Mag. Time & Date
Minimum magnitude displayed is 2.5.

Coastal Water Temperatures

Place Temperature

Stations

Nearby Weather Stations

Station Location Temp. Windchill Dew Point Humidity Wind Precip. Elev Updated Type